Terminal Aerodrome Forecast
Issued by NWS

Home | Current Version | Previous Version | Text Only | Print | Product List | Glossary On
Versions: 1 2 3 4 5 6 7 8 9 10 11 12 13 14
000
FTUS42 KTBW 200500 RRA
TAFRSW
TAF
KRSW 200543Z 2006/2106 VRB03KT P6SM SCT250
     FM201400 14005KT P6SM FEW030 SCT250
     FM201900 20006KT P6SM FEW035 BKN250
     FM210000 VRB03KT P6SM FEW035 SCT100 BKN200=

USA.gov is the U.S. government's official web portal to all federal, state and local government web resources and services.